createdAt,value
2023-03-29T00:01:53.730Z,90.60
2023-03-29T00:04:56.656Z,90.60
2023-03-29T00:08:01.796Z,91.00
2023-03-29T00:11:04.092Z,90.70
2023-03-29T00:14:06.088Z,90.70
2023-03-29T00:17:07.840Z,90.60
2023-03-29T00:20:10.576Z,90.60
2023-03-29T00:23:12.265Z,90.60
2023-03-29T00:26:13.809Z,90.70
2023-03-29T00:29:15.531Z,90.60
2023-03-29T00:32:17.182Z,90.60
2023-03-29T00:35:19.334Z,90.70
2023-03-29T00:38:21.034Z,90.70
2023-03-29T00:41:22.654Z,90.70
2023-03-29T00:44:56.368Z,90.60
2023-03-29T00:48:03.142Z,90.10
2023-03-29T00:51:10.007Z,90.70
2023-03-29T00:54:15.763Z,92.60
2023-03-29T00:57:21.505Z,90.80
2023-03-29T01:00:31.687Z,90.80
2023-03-29T01:03:41.380Z,90.80
2023-03-29T01:06:50.893Z,90.80
2023-03-29T01:10:12.410Z,90.70
2023-03-29T01:13:21.721Z,90.20
2023-03-29T01:16:25.656Z,91.10
2023-03-29T01:19:33.842Z,90.80
2023-03-29T01:22:57.154Z,90.90
2023-03-29T01:26:13.950Z,90.30
2023-03-29T01:29:36.924Z,91.00
2023-03-29T01:32:42.053Z,91.00
2023-03-29T01:35:49.210Z,90.80
2023-03-29T01:38:54.528Z,91.00
2023-03-29T01:42:02.048Z,90.70
2023-03-29T01:45:22.250Z,89.90
2023-03-29T01:48:37.599Z,89.70
2023-03-29T01:51:44.868Z,90.90
2023-03-29T01:54:54.542Z,90.70
2023-03-29T01:57:59.103Z,91.00
2023-03-29T02:01:05.603Z,90.60
2023-03-29T02:04:13.390Z,90.70
2023-03-29T02:07:17.545Z,91.00
2023-03-29T02:10:20.126Z,90.90
2023-03-29T02:13:22.026Z,90.90
2023-03-29T02:16:23.963Z,90.80
2023-03-29T02:19:25.825Z,90.60
2023-03-29T02:22:36.523Z,90.80
2023-03-29T02:25:38.374Z,90.90
2023-03-29T02:28:40.763Z,90.80
2023-03-29T02:31:55.160Z,90.90
2023-03-29T02:35:13.193Z,90.20
2023-03-29T02:38:15.219Z,91.00
2023-03-29T02:41:17.924Z,90.80
2023-03-29T02:44:29.613Z,90.80
2023-03-29T02:47:35.598Z,91.10
2023-03-29T02:50:40.545Z,90.90
2023-03-29T02:54:03.067Z,90.90
2023-03-29T02:57:06.497Z,90.10
2023-03-29T03:00:10.100Z,90.80
2023-03-29T03:03:13.187Z,90.70
2023-03-29T03:06:15.185Z,90.90
2023-03-29T03:09:16.834Z,90.70
2023-03-29T03:12:18.397Z,91.20
2023-03-29T03:15:20.822Z,90.80
2023-03-29T03:18:23.252Z,90.80
2023-03-29T03:21:25.614Z,90.90
2023-03-29T03:24:28.079Z,90.90
2023-03-29T03:27:29.650Z,90.90
2023-03-29T03:30:31.521Z,90.90
2023-03-29T03:33:34.043Z,90.90
2023-03-29T03:36:35.742Z,91.30
2023-03-29T03:40:15.698Z,91.00
2023-03-29T03:44:06.209Z,91.10
2023-03-29T03:46:41.994Z,91.00
2023-03-29T03:49:43.796Z,90.70
2023-03-29T03:52:45.397Z,91.10
2023-03-29T03:55:55.775Z,91.30
2023-03-29T03:58:57.368Z,91.40
2023-03-29T04:02:00.234Z,91.20
2023-03-29T04:05:03.391Z,91.30
2023-03-29T04:08:06.623Z,91.30
2023-03-29T04:11:08.206Z,91.40
2023-03-29T04:14:10.202Z,91.40
2023-03-29T04:17:12.109Z,91.60
2023-03-29T04:20:14.811Z,91.50
2023-03-29T04:23:17.018Z,91.80
2023-03-29T04:26:18.750Z,91.60
2023-03-29T04:29:20.290Z,91.70
2023-03-29T04:32:21.874Z,91.80
2023-03-29T04:35:23.830Z,91.70
2023-03-29T04:38:26.613Z,91.80
2023-03-29T04:41:28.881Z,91.80
2023-03-29T04:44:33.323Z,91.90
2023-03-29T04:47:36.325Z,91.80
2023-03-29T04:50:38.052Z,92.00
2023-03-29T04:53:39.916Z,92.00
2023-03-29T04:56:41.624Z,91.60
2023-03-29T04:59:43.297Z,92.10
2023-03-29T05:02:45.340Z,92.30
2023-03-29T05:05:47.029Z,92.40
2023-03-29T05:08:48.766Z,92.50
2023-03-29T05:11:50.644Z,92.60
2023-03-29T05:14:52.405Z,92.70
2023-03-29T05:17:54.316Z,92.60
2023-03-29T05:20:56.811Z,92.70
2023-03-29T05:23:58.606Z,92.90
2023-03-29T05:27:00.631Z,93.00
2023-03-29T05:30:02.360Z,92.60
2023-03-29T05:33:05.539Z,93.00
2023-03-29T05:36:13.389Z,93.00
2023-03-29T05:39:15.352Z,93.20
2023-03-29T05:42:19.130Z,93.20
2023-03-29T05:45:20.819Z,93.10
2023-03-29T05:48:23.674Z,93.20
2023-03-29T05:51:25.252Z,93.20
2023-03-29T05:54:27.146Z,93.10
2023-03-29T05:57:28.799Z,93.30
2023-03-29T06:00:31.829Z,93.40
2023-03-29T06:03:33.612Z,93.30
2023-03-29T06:06:36.268Z,93.40
2023-03-29T06:09:39.519Z,93.30
2023-03-29T06:12:41.786Z,93.30
2023-03-29T06:15:43.361Z,93.40
2023-03-29T06:18:45.156Z,93.30
2023-03-29T06:21:47.196Z,93.30
2023-03-29T06:24:48.911Z,93.20
2023-03-29T06:27:52.017Z,93.20
2023-03-29T06:30:56.158Z,93.20
2023-03-29T06:33:58.268Z,93.20
2023-03-29T06:36:59.970Z,93.10
2023-03-29T06:40:05.692Z,93.30
2023-03-29T06:43:07.326Z,93.20
2023-03-29T06:46:11.916Z,93.00
2023-03-29T06:49:13.700Z,93.20
2023-03-29T06:52:16.429Z,93.40
2023-03-29T06:55:18.686Z,93.00
2023-03-29T06:58:20.518Z,92.90
2023-03-29T07:01:22.721Z,93.10
2023-03-29T07:04:24.759Z,92.80
2023-03-29T07:07:33.056Z,92.70
2023-03-29T07:10:43.668Z,92.70
2023-03-29T07:13:46.150Z,92.80
2023-03-29T07:16:48.700Z,92.70
2023-03-29T07:19:50.313Z,92.70
2023-03-29T07:22:51.922Z,92.50
2023-03-29T07:25:53.959Z,92.40
2023-03-29T07:28:55.601Z,92.50
2023-03-29T07:31:57.266Z,92.40
2023-03-29T07:34:58.939Z,92.50
2023-03-29T07:38:00.522Z,92.40
2023-03-29T07:41:05.103Z,92.50
2023-03-29T07:44:08.941Z,92.30
2023-03-29T07:47:10.549Z,92.30
2023-03-29T07:50:12.478Z,92.00
2023-03-29T07:53:14.028Z,92.30
2023-03-29T07:56:15.853Z,92.10
2023-03-29T07:59:17.540Z,92.10
2023-03-29T08:02:19.532Z,92.20
2023-03-29T08:05:37.581Z,92.20
2023-03-29T08:08:42.124Z,92.30
2023-03-29T08:11:43.742Z,91.90
2023-03-29T08:14:46.082Z,92.00
2023-03-29T08:17:47.698Z,92.30
2023-03-29T08:20:50.900Z,91.90
2023-03-29T08:23:52.565Z,92.00
2023-03-29T08:26:54.217Z,91.60
2023-03-29T08:29:56.130Z,92.10
2023-03-29T08:32:58.019Z,92.10
2023-03-29T08:35:59.716Z,92.10
2023-03-29T08:39:03.145Z,92.30
2023-03-29T08:42:29.689Z,92.30
2023-03-29T08:45:46.936Z,91.70
2023-03-29T08:49:02.579Z,91.70
2023-03-29T08:52:11.837Z,92.60
2023-03-29T08:55:45.202Z,92.20
2023-03-29T08:58:48.592Z,92.20
2023-03-29T09:01:53.877Z,91.80
2023-03-29T09:05:03.032Z,92.10
2023-03-29T09:08:13.262Z,92.00
2023-03-29T09:11:17.918Z,92.00
2023-03-29T09:14:28.343Z,91.20
2023-03-29T09:17:54.997Z,91.10
2023-03-29T09:21:27.077Z,91.00
2023-03-29T09:24:49.842Z,90.80
2023-03-29T09:28:19.498Z,90.90
2023-03-29T09:31:37.069Z,91.60
2023-03-29T09:34:44.754Z,91.60
2023-03-29T09:37:48.897Z,91.50
2023-03-29T09:41:00.217Z,91.60
2023-03-29T09:44:10.859Z,91.40
2023-03-29T09:47:28.123Z,91.60
2023-03-29T09:50:42.224Z,91.50
2023-03-29T09:53:43.794Z,91.70
2023-03-29T09:56:45.408Z,91.30
2023-03-29T09:59:50.459Z,91.20
2023-03-29T10:02:54.469Z,91.70
2023-03-29T10:05:59.439Z,91.40
2023-03-29T10:09:02.126Z,90.90
2023-03-29T10:12:06.755Z,90.50
2023-03-29T10:15:23.102Z,90.70
2023-03-29T10:18:32.387Z,90.80
2023-03-29T10:21:33.980Z,91.10
2023-03-29T10:24:35.866Z,90.90
2023-03-29T10:27:41.499Z,90.50
2023-03-29T10:30:44.917Z,90.40
2023-03-29T10:33:52.961Z,90.50
2023-03-29T10:37:01.071Z,90.60
2023-03-29T10:40:03.774Z,90.30
2023-03-29T10:43:14.570Z,90.30
2023-03-29T10:46:19.782Z,90.30
2023-03-29T10:49:23.392Z,89.30
2023-03-29T10:52:25.939Z,90.10
2023-03-29T10:55:36.708Z,89.90
2023-03-29T10:58:46.022Z,90.00
2023-03-29T11:02:01.104Z,90.60
2023-03-29T11:05:26.140Z,90.40
2023-03-29T11:08:33.439Z,88.20
2023-03-29T11:12:15.755Z,89.50
2023-03-29T11:15:17.800Z,87.80
2023-03-29T11:18:56.350Z,89.00
2023-03-29T11:22:09.834Z,87.40
2023-03-29T11:25:43.379Z,87.40
2023-03-29T11:29:16.061Z,87.80
2023-03-29T11:32:38.139Z,87.70
2023-03-29T11:35:46.472Z,87.60
2023-03-29T11:39:13.101Z,87.20
2023-03-29T11:42:29.257Z,86.60
2023-03-29T11:45:43.366Z,87.20
2023-03-29T11:48:59.248Z,88.60
2023-03-29T11:52:17.462Z,88.80
2023-03-29T11:55:23.805Z,89.00
2023-03-29T11:58:38.301Z,88.80
2023-03-29T12:01:49.672Z,88.40
2023-03-29T12:04:57.558Z,87.80
2023-03-29T12:08:13.748Z,87.40
2023-03-29T12:11:40.319Z,84.50
2023-03-29T12:14:56.425Z,87.80
2023-03-29T12:18:24.269Z,85.10
2023-03-29T12:21:29.038Z,85.40
2023-03-29T12:24:33.184Z,87.90
2023-03-29T12:27:59.443Z,87.70
2023-03-29T12:31:36.590Z,86.40
2023-03-29T12:35:03.933Z,87.60
2023-03-29T12:38:23.918Z,85.60
2023-03-29T12:41:25.937Z,87.20
2023-03-29T12:44:27.844Z,87.10
2023-03-29T12:47:43.143Z,87.10
2023-03-29T12:50:51.211Z,87.00
2023-03-29T12:53:55.032Z,86.90
2023-03-29T12:57:20.367Z,86.50
2023-03-29T13:00:44.530Z,86.80
2023-03-29T13:03:48.299Z,86.40
2023-03-29T13:07:02.830Z,85.90
2023-03-29T13:10:33.832Z,84.20
2023-03-29T13:13:38.955Z,87.10
2023-03-29T13:16:41.094Z,86.00
2023-03-29T13:20:09.320Z,86.20
2023-03-29T13:23:26.310Z,84.50
2023-03-29T13:26:45.218Z,86.10
2023-03-29T13:30:05.684Z,86.60
2023-03-29T13:33:22.886Z,85.00
2023-03-29T13:36:56.564Z,85.20
2023-03-29T13:39:58.186Z,86.00
2023-03-29T13:43:19.537Z,88.20
2023-03-29T13:46:41.301Z,87.10
2023-03-29T13:49:50.315Z,88.40
2023-03-29T13:53:03.888Z,86.90
2023-03-29T13:56:10.976Z,86.60
2023-03-29T13:59:18.839Z,87.10
2023-03-29T14:02:57.892Z,85.90
2023-03-29T14:06:02.088Z,86.80
2023-03-29T14:09:07.121Z,87.30
2023-03-29T14:12:12.657Z,87.00
2023-03-29T14:15:23.633Z,87.30
2023-03-29T14:18:27.541Z,87.10
2023-03-29T14:21:29.486Z,87.10
2023-03-29T14:24:38.272Z,87.20
2023-03-29T14:27:41.614Z,86.80
2023-03-29T14:30:46.982Z,86.70
2023-03-29T14:33:59.266Z,87.40
2023-03-29T14:37:01.058Z,87.70
2023-03-29T14:40:07.676Z,87.30
2023-03-29T14:43:11.005Z,87.30
2023-03-29T14:46:15.374Z,87.50
2023-03-29T14:49:19.297Z,86.70
2023-03-29T14:52:21.553Z,86.90
2023-03-29T14:55:23.989Z,86.90
2023-03-29T14:58:32.649Z,86.90
2023-03-29T15:01:43.902Z,86.90
2023-03-29T15:04:54.260Z,87.50
2023-03-29T15:07:57.240Z,87.30
2023-03-29T15:10:59.403Z,85.40
2023-03-29T15:14:13.334Z,86.70
2023-03-29T15:17:43.006Z,87.00
2023-03-29T15:20:51.777Z,85.10
2023-03-29T15:23:57.214Z,87.30
2023-03-29T15:27:11.035Z,87.10
2023-03-29T15:30:16.667Z,87.20
2023-03-29T15:33:25.828Z,87.00
2023-03-29T15:36:27.623Z,88.40
2023-03-29T15:39:29.629Z,88.50
2023-03-29T15:42:31.421Z,87.60
2023-03-29T15:45:33.313Z,87.70
2023-03-29T15:48:34.881Z,87.80
2023-03-29T15:51:36.437Z,87.80
2023-03-29T15:54:37.999Z,87.90
2023-03-29T15:57:41.530Z,88.00
2023-03-29T16:00:46.479Z,89.60
2023-03-29T16:03:48.293Z,88.50
2023-03-29T16:06:55.485Z,88.40
2023-03-29T16:09:57.726Z,88.30
2023-03-29T16:12:59.321Z,88.20
2023-03-29T16:16:01.101Z,87.80
2023-03-29T16:19:02.866Z,88.10
2023-03-29T16:22:07.454Z,88.00
2023-03-29T16:25:14.670Z,87.70
2023-03-29T16:28:16.338Z,88.70
2023-03-29T16:31:17.988Z,87.80
2023-03-29T16:34:20.314Z,87.60
2023-03-29T16:37:21.846Z,88.40
2023-03-29T16:40:23.851Z,87.70
2023-03-29T16:43:25.944Z,87.60
2023-03-29T16:46:27.572Z,86.90
2023-03-29T16:49:29.174Z,86.40
2023-03-29T16:52:31.143Z,86.80
2023-03-29T16:55:32.882Z,85.90
2023-03-29T16:58:34.465Z,87.20
2023-03-29T17:01:36.611Z,85.90
2023-03-29T17:04:38.615Z,85.60
2023-03-29T17:07:40.372Z,85.70
2023-03-29T17:10:42.232Z,85.60
2023-03-29T17:13:44.451Z,85.80
2023-03-29T17:16:46.290Z,86.00
2023-03-29T17:19:48.001Z,85.80
2023-03-29T17:22:52.064Z,85.50
2023-03-29T17:25:57.264Z,85.60
2023-03-29T17:28:58.827Z,85.70
2023-03-29T17:32:00.799Z,86.10
2023-03-29T17:35:03.345Z,86.10
2023-03-29T17:38:05.078Z,86.50
2023-03-29T17:41:08.215Z,86.90
2023-03-29T17:44:09.843Z,87.00
2023-03-29T17:47:11.427Z,86.60
2023-03-29T17:50:13.316Z,87.40
2023-03-29T17:53:15.238Z,86.50
2023-03-29T17:56:17.406Z,86.50
2023-03-29T17:59:18.998Z,86.80
2023-03-29T18:02:23.254Z,86.60
2023-03-29T18:05:25.079Z,87.00
2023-03-29T18:08:26.701Z,86.90
2023-03-29T18:11:28.566Z,87.80
2023-03-29T18:14:30.229Z,86.70
2023-03-29T18:17:31.959Z,87.40
2023-03-29T18:20:33.647Z,87.50
2023-03-29T18:23:35.969Z,87.20
2023-03-29T18:26:37.575Z,88.30
2023-03-29T18:29:39.268Z,87.60
2023-03-29T18:32:40.861Z,88.00
2023-03-29T18:35:48.428Z,87.70
2023-03-29T18:38:50.369Z,88.40
2023-03-29T18:41:51.924Z,88.50
2023-03-29T18:44:53.817Z,88.40
2023-03-29T18:47:55.562Z,87.70
2023-03-29T18:50:57.741Z,88.90
2023-03-29T18:53:59.347Z,89.30
2023-03-29T18:57:01.163Z,89.10
2023-03-29T19:00:08.017Z,89.80
2023-03-29T19:03:22.186Z,90.60
2023-03-29T19:06:34.293Z,87.40
2023-03-29T19:09:43.128Z,90.60
2023-03-29T19:12:44.797Z,90.80
2023-03-29T19:15:50.204Z,90.10
2023-03-29T19:18:52.149Z,90.10
2023-03-29T19:21:53.977Z,90.60
2023-03-29T19:24:55.575Z,90.40
2023-03-29T19:27:57.629Z,90.60
2023-03-29T19:31:01.277Z,90.90
2023-03-29T19:34:03.478Z,90.60
2023-03-29T19:37:05.153Z,90.70
2023-03-29T19:40:09.458Z,90.30
2023-03-29T19:43:16.244Z,90.50
2023-03-29T19:46:17.866Z,90.80
2023-03-29T19:49:19.582Z,90.80
2023-03-29T19:52:23.832Z,90.90
2023-03-29T19:55:26.660Z,91.00
2023-03-29T19:58:28.249Z,91.00
2023-03-29T20:01:32.140Z,91.30
2023-03-29T20:04:35.246Z,91.10
2023-03-29T20:07:36.846Z,90.50
2023-03-29T20:10:38.441Z,91.00
2023-03-29T20:13:44.805Z,90.90
2023-03-29T20:16:46.670Z,91.40
2023-03-29T20:19:48.351Z,91.10
2023-03-29T20:22:50.562Z,91.20
2023-03-29T20:25:52.493Z,91.20
2023-03-29T20:28:54.347Z,91.20
2023-03-29T20:31:56.609Z,90.90
2023-03-29T20:34:58.187Z,91.40
2023-03-29T20:38:00.085Z,91.30
2023-03-29T20:41:03.961Z,91.30
2023-03-29T20:44:05.864Z,91.40
2023-03-29T20:47:08.166Z,91.50
2023-03-29T20:50:10.461Z,91.50
2023-03-29T20:53:12.148Z,91.40
2023-03-29T20:56:14.623Z,91.40
2023-03-29T20:59:16.186Z,91.60
2023-03-29T21:02:21.675Z,91.90
2023-03-29T21:05:23.994Z,91.70
2023-03-29T21:08:28.494Z,91.60
2023-03-29T21:11:30.136Z,91.70
2023-03-29T21:14:32.913Z,91.50
2023-03-29T21:17:34.676Z,91.60
2023-03-29T21:20:37.538Z,91.60
2023-03-29T21:23:40.700Z,91.70
2023-03-29T21:26:42.347Z,91.40
2023-03-29T21:29:44.101Z,91.90
2023-03-29T21:32:45.694Z,91.70
2023-03-29T21:35:51.004Z,91.70
2023-03-29T21:38:53.682Z,92.00
2023-03-29T21:41:55.839Z,91.00
2023-03-29T21:44:57.410Z,91.60
2023-03-29T21:47:59.054Z,91.80
2023-03-29T21:51:00.978Z,91.70
2023-03-29T21:54:02.831Z,91.80
2023-03-29T21:57:04.580Z,91.40
2023-03-29T22:00:12.403Z,91.70
2023-03-29T22:03:15.056Z,91.50
2023-03-29T22:06:16.853Z,91.80
2023-03-29T22:09:20.344Z,91.60
2023-03-29T22:12:22.629Z,91.80
2023-03-29T22:15:24.177Z,91.80
2023-03-29T22:18:42.850Z,91.70
2023-03-29T22:21:44.626Z,91.80
2023-03-29T22:24:46.269Z,91.70
2023-03-29T22:27:48.844Z,91.60
2023-03-29T22:30:50.563Z,92.20
2023-03-29T22:33:52.574Z,91.50
2023-03-29T22:36:54.137Z,91.60
2023-03-29T22:39:55.677Z,91.70
2023-03-29T22:42:57.335Z,91.60
2023-03-29T22:45:59.171Z,91.30
2023-03-29T22:49:01.089Z,91.00
2023-03-29T22:52:02.727Z,91.30
2023-03-29T22:55:04.566Z,91.70
2023-03-29T22:58:06.112Z,91.50
2023-03-29T23:01:08.194Z,91.50
2023-03-29T23:04:10.677Z,91.30
2023-03-29T23:07:12.331Z,91.50
2023-03-29T23:10:13.994Z,91.40
2023-03-29T23:13:20.384Z,91.70
2023-03-29T23:16:22.060Z,91.40
2023-03-29T23:19:23.798Z,91.20
2023-03-29T23:22:26.110Z,91.30
2023-03-29T23:25:27.798Z,91.10
2023-03-29T23:28:34.221Z,90.90
2023-03-29T23:31:37.583Z,90.40
2023-03-29T23:34:39.584Z,90.80
2023-03-29T23:37:41.427Z,91.10
2023-03-29T23:40:43.006Z,90.70
2023-03-29T23:43:46.964Z,90.80
2023-03-29T23:46:48.617Z,90.70
2023-03-29T23:49:50.574Z,90.70
2023-03-29T23:52:52.140Z,90.80
2023-03-29T23:56:05.389Z,91.30
2023-03-29T23:59:06.937Z,91.40
